Time;durP1;ratioP1;P1;durP2;ratioP2;P2;SDS_P1;SDS_P2;PMS_P1;PMS_P2;Temp;Humidity;BMP_temperature;BMP_pressure;BME280_temperature;BME280_humidity;BME280_pressure;Samples;Min_cycle;Max_cycle;Signal;HPM_P1;HPM_P2
2021/04/21 00:01:25;;;;;;;20.42;16.88;;;9.90;99.90;;;;;;5053535;28;20047;-69
2021/04/21 00:03:54;;;;;;;22.90;17.38;;;9.90;99.90;;;;;;5050959;28;20080;-69
2021/04/21 00:06:22;;;;;;;21.88;16.90;;;9.80;99.90;;;;;;5050019;28;20107;-69
2021/04/21 00:08:50;;;;;;;19.50;16.50;;;9.80;99.90;;;;;;5053440;28;20060;-68
2021/04/21 00:11:17;;;;;;;22.40;17.45;;;9.80;99.90;;;;;;5048954;28;20051;-69
2021/04/21 00:13:45;;;;;;;20.67;15.98;;;9.70;99.90;;;;;;5053689;28;20048;-68
2021/04/21 00:16:14;;;;;;;21.63;16.13;;;9.70;99.90;;;;;;5047451;28;20050;-69
2021/04/21 00:18:44;;;;;;;18.80;15.75;;;9.60;99.90;;;;;;5053092;28;20041;-69
2021/04/21 00:21:13;;;;;;;24.35;16.77;;;9.60;99.90;;;;;;5047267;28;20107;-68
2021/04/21 00:23:41;;;;;;;20.13;15.23;;;9.60;99.90;;;;;;5049900;28;20064;-69
2021/04/21 00:26:16;;;;;;;21.27;16.27;;;9.50;99.90;;;;;;5051547;28;20471;-68
2021/04/21 00:28:43;;;;;;;20.75;16.45;;;9.50;99.90;;;;;;5053251;28;20078;-68
2021/04/21 00:31:13;;;;;;;22.48;16.95;;;9.50;99.90;;;;;;5047671;28;20083;-69
2021/04/21 00:33:42;;;;;;;23.02;16.20;;;9.40;99.90;;;;;;5047327;28;20500;-69
2021/04/21 00:36:14;;;;;;;18.83;15.63;;;9.40;99.90;;;;;;5039342;28;20052;-69
2021/04/21 00:38:42;;;;;;;22.00;15.95;;;9.40;99.90;;;;;;5037205;28;20911;-69
2021/04/21 00:41:16;;;;;;;21.35;16.00;;;9.40;99.90;;;;;;5050839;28;20581;-69
2021/04/21 00:43:53;;;;;;;21.20;16.25;;;9.40;99.90;;;;;;5049252;28;20045;-69
2021/04/21 00:46:25;;;;;;;22.10;15.98;;;9.40;99.90;;;;;;5058725;28;20053;-68
2021/04/21 00:49:12;;;;;;;24.55;18.17;;;9.30;99.90;;;;;;5048974;28;20051;-68
2021/04/21 00:51:49;;;;;;;23.60;16.27;;;9.30;99.90;;;;;;5052625;28;20045;-68
2021/04/21 00:54:40;;;;;;;24.33;17.48;;;9.30;99.90;;;;;;5050434;28;20040;-68
2021/04/21 00:57:29;;;;;;;21.80;16.70;;;9.20;99.90;;;;;;5060403;28;20383;-69
2021/04/21 01:00:19;;;;;;;22.00;17.50;;;9.20;99.90;;;;;;5041752;28;20056;-69
2021/04/21 01:03:20;;;;;;;22.60;16.73;;;9.10;99.90;;;;;;5047357;28;20042;-69
2021/04/21 01:06:09;;;;;;;20.75;16.60;;;9.10;99.90;;;;;;5050011;28;20060;-69
2021/04/21 01:08:41;;;;;;;25.55;18.17;;;9.10;99.90;;;;;;5050981;28;20099;-69
2021/04/21 01:11:29;;;;;;;25.42;18.08;;;9.00;99.90;;;;;;5051583;28;20053;-68
2021/04/21 01:14:15;;;;;;;24.73;17.15;;;9.00;99.90;;;;;;5036252;28;20069;-68
2021/04/21 01:16:47;;;;;;;24.60;17.17;;;9.00;99.90;;;;;;5039232;28;20081;-68
2021/04/21 01:19:20;;;;;;;24.20;17.97;;;9.00;99.90;;;;;;5044949;28;20056;-68
2021/04/21 01:21:52;;;;;;;24.50;17.20;;;8.90;99.90;;;;;;5053230;28;20477;-69
2021/04/21 01:24:23;;;;;;;26.25;18.27;;;8.90;99.90;;;;;;5050193;28;20516;-68
2021/04/21 01:27:04;;;;;;;25.42;18.40;;;8.90;99.90;;;;;;5044842;28;20079;-68
2021/04/21 01:29:44;;;;;;;25.08;18.92;;;8.90;99.90;;;;;;5051004;28;20056;-67
2021/04/21 01:32:23;;;;;;;24.65;18.58;;;8.90;99.90;;;;;;5043591;28;20141;-69
2021/04/21 01:34:53;;;;;;;22.60;17.70;;;8.90;99.90;;;;;;5049074;28;20163;-69
2021/04/21 01:37:33;;;;;;;28.63;20.70;;;8.90;99.90;;;;;;5039601;28;20132;-69
2021/04/21 01:40:09;;;;;;;32.78;23.23;;;8.90;99.90;;;;;;5051293;28;20071;-69
2021/04/21 01:42:40;;;;;;;28.70;20.50;;;8.80;99.90;;;;;;5051124;28;20152;-69
2021/04/21 01:45:10;;;;;;;25.98;18.83;;;8.80;99.90;;;;;;5054847;28;20162;-69
2021/04/21 01:47:39;;;;;;;26.52;18.73;;;8.80;99.90;;;;;;5051369;28;20361;-69
2021/04/21 01:50:10;;;;;;;26.27;18.58;;;8.90;99.90;;;;;;5053152;28;20500;-69
2021/04/21 01:52:47;;;;;;;24.55;18.75;;;8.80;99.90;;;;;;5051067;28;20065;-68
2021/04/21 01:55:21;;;;;;;24.48;17.67;;;8.80;99.90;;;;;;5052158;28;20072;-69
2021/04/21 01:58:06;;;;;;;24.73;19.33;;;8.80;99.90;;;;;;5023791;28;20135;-69
2021/04/21 02:00:44;;;;;;;24.70;18.85;;;8.70;99.90;;;;;;5050174;28;20057;-69
2021/04/21 02:03:47;;;;;;;26.48;17.60;;;8.70;99.90;;;;;;5046160;28;20057;-69
2021/04/21 02:06:48;;;;;;;22.50;17.08;;;8.70;99.90;;;;;;5044859;28;20202;-69
2021/04/21 02:09:50;;;;;;;24.25;17.98;;;8.70;99.90;;;;;;5046085;28;20083;-69
2021/04/21 02:12:27;;;;;;;25.37;19.13;;;8.70;99.90;;;;;;5046782;28;20061;-67
2021/04/21 02:15:16;;;;;;;28.73;19.63;;;8.70;99.90;;;;;;5052117;28;20045;-68
2021/04/21 02:17:52;;;;;;;23.52;17.77;;;8.60;99.90;;;;;;5046131;28;20106;-68
2021/04/21 02:20:34;;;;;;;25.83;17.70;;;8.60;99.90;;;;;;5051324;28;20144;-69
2021/04/21 02:23:16;;;;;;;27.17;19.38;;;8.60;99.90;;;;;;5051576;28;20476;-69
2021/04/21 02:25:54;;;;;;;28.30;19.65;;;8.60;99.90;;;;;;5048622;28;20106;-69
2021/04/21 02:28:47;;;;;;;24.70;17.40;;;8.60;99.90;;;;;;5051748;28;20598;-69
2021/04/21 02:31:25;;;;;;;24.95;18.85;;;8.60;99.90;;;;;;5051843;28;20132;-69
2021/04/21 02:34:11;;;;;;;25.60;18.70;;;8.60;99.90;;;;;;5030453;28;20044;-69
2021/04/21 02:36:46;;;;;;;25.13;18.08;;;8.60;99.90;;;;;;5044130;28;20120;-68
2021/04/21 02:39:21;;;;;;;25.65;17.77;;;8.50;99.90;;;;;;5051441;28;20049;-69
2021/04/21 02:42:09;;;;;;;24.15;18.50;;;8.50;99.90;;;;;;5049440;28;20076;-69
2021/04/21 02:44:45;;;;;;;23.88;18.02;;;8.50;99.90;;;;;;5048279;28;20152;-69
2021/04/21 02:47:22;;;;;;;24.58;17.50;;;8.50;99.90;;;;;;5046485;28;20052;-68
2021/04/21 02:50:12;;;;;;;24.60;18.35;;;8.50;99.90;;;;;;5045979;28;20659;-68
2021/04/21 02:52:41;;;;;;;23.95;17.95;;;8.50;99.90;;;;;;5051035;28;20045;-68
2021/04/21 02:55:26;;;;;;;29.10;19.60;;;8.40;99.90;;;;;;5049344;28;20083;-68
2021/04/21 02:58:05;;;;;;;25.27;18.55;;;8.40;99.90;;;;;;5039128;28;20052;-68
2021/04/21 03:00:49;;;;;;;26.48;19.33;;;8.40;99.90;;;;;;5050242;28;20057;-69
2021/04/21 03:03:36;;;;;;;26.52;18.42;;;8.40;99.90;;;;;;5050785;28;20632;-68
2021/04/21 03:06:10;;;;;;;27.88;19.88;;;8.40;99.90;;;;;;5051239;28;20151;-68
2021/04/21 03:08:48;;;;;;;27.80;19.88;;;8.40;99.90;;;;;;5049593;28;20057;-69
2021/04/21 03:11:18;;;;;;;28.88;19.15;;;8.40;99.90;;;;;;5051634;28;20064;-68
2021/04/21 03:13:53;;;;;;;27.10;19.90;;;8.40;99.90;;;;;;5049784;28;20049;-68
2021/04/21 03:16:21;;;;;;;28.27;19.25;;;8.40;99.90;;;;;;5048443;28;20041;-69
2021/04/21 03:18:50;;;;;;;28.70;19.70;;;8.40;99.90;;;;;;5050568;28;20053;-69
2021/04/21 03:21:25;;;;;;;27.60;19.20;;;8.40;99.90;;;;;;5039230;28;20465;-69
2021/04/21 03:24:17;;;;;;;27.88;19.83;;;8.40;99.90;;;;;;5040721;28;20095;-69
2021/04/21 03:26:50;;;;;;;27.95;19.30;;;8.40;99.90;;;;;;5050746;28;20612;-69
2021/04/21 03:29:24;;;;;;;26.85;19.30;;;8.40;99.90;;;;;;5050093;28;20526;-68
2021/04/21 03:31:54;;;;;;;26.40;20.20;;;8.40;99.90;;;;;;5050062;28;20128;-68
2021/04/21 03:34:23;;;;;;;25.90;18.50;;;8.30;99.90;;;;;;5051530;28;20136;-68
2021/04/21 03:36:50;;;;;;;27.33;20.40;;;8.30;99.90;;;;;;5051538;28;20052;-68
2021/04/21 03:39:17;;;;;;;26.75;19.58;;;8.30;99.90;;;;;;5054560;28;20377;-68
2021/04/21 03:41:44;;;;;;;26.20;19.17;;;8.30;99.90;;;;;;5054644;28;20143;-68
2021/04/21 03:44:12;;;;;;;25.55;18.83;;;8.30;99.90;;;;;;5056562;28;20144;-69
2021/04/21 03:46:42;;;;;;;25.77;19.85;;;8.30;99.90;;;;;;5052722;28;20075;-68
2021/04/21 03:49:11;;;;;;;23.92;18.23;;;8.30;99.90;;;;;;5051815;28;20383;-68
2021/04/21 03:51:39;;;;;;;29.70;19.25;;;8.30;99.90;;;;;;5054076;28;20120;-69
2021/04/21 03:54:08;;;;;;;27.73;18.50;;;8.30;99.90;;;;;;5050862;28;20563;-69
2021/04/21 03:56:36;;;;;;;25.85;18.05;;;8.30;99.90;;;;;;5050154;28;20045;-70
2021/04/21 03:59:04;;;;;;;26.98;18.50;;;8.30;99.90;;;;;;5047465;28;20129;-69
2021/04/21 04:01:41;;;;;;;23.60;18.02;;;8.30;99.90;;;;;;5051249;28;20398;-68
2021/04/21 04:04:09;;;;;;;26.90;19.10;;;8.20;99.90;;;;;;5049237;28;20076;-70
2021/04/21 04:06:47;;;;;;;27.60;19.60;;;8.20;99.90;;;;;;5053035;28;20079;-68
2021/04/21 04:09:20;;;;;;;27.45;19.92;;;8.20;99.90;;;;;;5062960;28;20069;-69
2021/04/21 04:11:52;;;;;;;24.10;17.85;;;8.20;99.90;;;;;;5054820;28;20045;-69
2021/04/21 04:14:24;;;;;;;29.83;19.17;;;8.20;99.90;;;;;;5038658;28;20049;-70
2021/04/21 04:16:57;;;;;;;26.25;18.77;;;8.20;99.90;;;;;;5042855;28;20396;-70
2021/04/21 04:19:25;;;;;;;27.05;19.42;;;8.10;99.90;;;;;;5054133;28;20068;-69
2021/04/21 04:22:05;;;;;;;22.92;17.05;;;8.10;99.90;;;;;;5053858;28;20049;-68
2021/04/21 04:24:40;;;;;;;24.15;17.90;;;8.10;99.90;;;;;;5054682;28;20455;-69
2021/04/21 04:27:14;;;;;;;27.55;18.98;;;8.00;99.90;;;;;;5054479;28;20467;-68
2021/04/21 04:29:43;;;;;;;26.02;18.17;;;8.00;99.90;;;;;;5053342;28;20494;-69
2021/04/21 04:32:16;;;;;;;23.50;17.60;;;7.90;99.90;;;;;;5053635;28;20102;-68
2021/04/21 04:34:49;;;;;;;26.42;18.45;;;7.90;99.90;;;;;;5042745;28;20068;-69
2021/04/21 04:37:19;;;;;;;26.42;18.70;;;7.90;99.90;;;;;;5048131;28;20049;-68
2021/04/21 04:39:46;;;;;;;25.08;17.25;;;7.80;99.90;;;;;;5049136;28;20107;-69
2021/04/21 04:42:13;;;;;;;27.35;18.45;;;7.80;99.90;;;;;;5053280;28;20076;-69
2021/04/21 04:44:48;;;;;;;28.02;18.52;;;7.80;99.90;;;;;;5052057;28;20128;-69
2021/04/21 04:47:19;;;;;;;27.55;18.83;;;7.80;99.90;;;;;;5050882;28;20128;-69
2021/04/21 04:49:57;;;;;;;27.05;18.45;;;7.80;99.90;;;;;;5043688;28;20041;-69
2021/04/21 04:52:25;;;;;;;27.67;19.15;;;7.90;99.90;;;;;;5049731;28;20079;-69
2021/04/21 04:54:54;;;;;;;23.85;17.88;;;7.90;99.90;;;;;;5052651;28;20411;-69
2021/04/21 04:57:23;;;;;;;25.33;18.73;;;7.90;99.90;;;;;;5047586;28;20534;-69
2021/04/21 04:59:50;;;;;;;29.52;18.63;;;7.90;99.90;;;;;;5048599;28;20561;-69
2021/04/21 05:02:18;;;;;;;27.10;18.20;;;8.00;99.90;;;;;;5048823;28;20132;-69
2021/04/21 05:05:07;;;;;;;25.10;17.58;;;8.00;99.90;;;;;;5049847;28;20048;-69
2021/04/21 05:07:43;;;;;;;24.23;17.77;;;8.10;99.90;;;;;;5048546;28;20163;-69
2021/04/21 05:10:20;;;;;;;27.85;19.80;;;8.10;99.90;;;;;;5050634;28;20080;-69
2021/04/21 05:12:49;;;;;;;26.80;19.15;;;8.20;99.90;;;;;;5045047;28;20732;-69
2021/04/21 05:15:51;;;;;;;25.92;19.98;;;8.30;99.90;;;;;;5049146;28;20080;-70
2021/04/21 05:18:26;;;;;;;26.58;18.80;;;8.40;99.90;;;;;;5066003;28;20745;-70
2021/04/21 05:21:12;;;;;;;29.83;19.27;;;8.50;99.90;;;;;;5066108;28;20055;-69
2021/04/21 05:24:33;;;;;;;25.88;19.25;;;8.60;99.90;;;;;;5064475;28;20052;-69
2021/04/21 05:27:24;;;;;;;25.90;18.98;;;8.70;99.90;;;;;;5062234;28;20511;-69
2021/04/21 05:30:36;;;;;;;25.40;17.88;;;8.80;99.90;;;;;;5067734;28;21449;-69
2021/04/21 05:33:50;;;;;;;27.10;18.75;;;9.00;99.90;;;;;;5018783;28;20580;-69
2021/04/21 05:36:28;;;;;;;23.85;17.45;;;9.10;99.90;;;;;;5047841;28;20090;-69
2021/04/21 05:39:13;;;;;;;32.47;20.17;;;9.20;99.90;;;;;;5064352;28;20076;-69
2021/04/21 05:42:02;;;;;;;26.63;19.05;;;9.20;99.90;;;;;;5068267;28;20063;-69
2021/04/21 05:44:31;;;;;;;27.55;20.25;;;9.40;99.90;;;;;;5066466;28;20076;-69
2021/04/21 05:47:09;;;;;;;24.90;17.90;;;9.50;99.90;;;;;;5066884;28;20060;-69
2021/04/21 05:50:13;;;;;;;23.40;17.55;;;9.70;99.90;;;;;;5067182;28;20099;-69
2021/04/21 05:52:57;;;;;;;31.02;20.05;;;9.90;99.90;;;;;;5063559;28;20500;-69
2021/04/21 05:56:01;;;;;;;28.17;20.42;;;10.00;99.90;;;;;;5046065;28;20492;-69
2021/04/21 05:59:05;;;;;;;24.90;19.42;;;10.20;99.90;;;;;;5043842;28;20171;-69
2021/04/21 06:01:39;;;;;;;30.60;21.08;;;10.40;99.90;;;;;;5038926;28;20496;-69
2021/04/21 06:04:06;;;;;;;32.42;20.90;;;10.50;99.90;;;;;;5050544;28;20053;-70
2021/04/21 06:06:32;;;;;;;30.52;20.73;;;10.60;99.90;;;;;;5050665;28;20545;-70
2021/04/21 06:09:06;;;;;;;33.03;21.90;;;10.80;99.90;;;;;;5050256;28;20048;-70
2021/04/21 06:11:34;;;;;;;36.75;21.70;;;10.90;99.90;;;;;;5045459;28;20095;-70
2021/04/21 06:14:03;;;;;;;33.83;22.58;;;11.00;99.90;;;;;;5046256;28;20504;-70
2021/04/21 06:16:32;;;;;;;30.25;23.38;;;11.10;99.90;;;;;;5050658;28;20402;-70
2021/04/21 06:19:06;;;;;;;34.17;22.08;;;11.20;99.90;;;;;;5045056;28;20459;-70
2021/04/21 06:21:39;;;;;;;25.48;20.55;;;11.30;99.90;;;;;;5048631;28;20060;-70
2021/04/21 06:24:28;;;;;;;26.83;20.98;;;11.40;99.90;;;;;;5049320;28;20090;-71
2021/04/21 06:27:06;;;;;;;30.60;22.20;;;11.50;99.90;;;;;;5049214;28;20099;-71
2021/04/21 06:29:34;;;;;;;32.55;24.40;;;11.50;99.90;;;;;;5044086;28;20061;-70
2021/04/21 06:32:03;;;;;;;34.20;22.73;;;11.50;99.90;;;;;;5046474;28;20125;-70
2021/04/21 06:34:31;;;;;;;32.03;24.02;;;11.50;99.90;;;;;;5043875;28;20051;-69
2021/04/21 06:36:59;;;;;;;31.98;23.25;;;11.40;99.90;;;;;;5046206;28;20048;-70
2021/04/21 06:39:29;;;;;;;30.27;22.23;;;11.40;99.90;;;;;;5045925;28;20369;-69
2021/04/21 06:41:58;;;;;;;25.95;20.60;;;11.50;99.90;;;;;;5038812;28;20042;-69
2021/04/21 06:44:47;;;;;;;31.33;22.80;;;11.70;99.90;;;;;;5045076;28;20069;-69
2021/04/21 06:47:29;;;;;;;30.02;23.20;;;11.80;99.90;;;;;;5041934;28;20045;-69
2021/04/21 06:50:05;;;;;;;33.70;22.83;;;11.80;99.90;;;;;;5040785;28;20396;-70
2021/04/21 06:52:37;;;;;;;33.17;23.10;;;11.80;99.90;;;;;;5045462;28;20048;-70
2021/04/21 06:55:06;;;;;;;32.38;23.13;;;11.80;99.90;;;;;;5047909;28;20063;-69
2021/04/21 06:57:33;;;;;;;32.17;22.55;;;11.90;99.90;;;;;;5045121;28;20057;-69
2021/04/21 07:00:18;;;;;;;32.22;22.65;;;11.90;99.90;;;;;;5041061;28;20081;-69
2021/04/21 07:02:47;;;;;;;33.45;23.83;;;12.00;99.90;;;;;;5045241;28;20044;-69
2021/04/21 07:05:36;;;;;;;35.75;25.10;;;12.10;99.90;;;;;;5048324;28;20503;-69
2021/04/21 07:08:07;;;;;;;33.67;22.83;;;11.90;99.90;;;;;;5066233;28;20048;-70
2021/04/21 07:10:41;;;;;;;31.30;21.73;;;11.90;99.90;;;;;;5039152;28;20045;-70
2021/04/21 07:13:15;;;;;;;32.15;24.15;;;12.10;99.90;;;;;;5047252;28;20049;-70
2021/04/21 07:15:42;;;;;;;32.67;22.63;;;12.30;99.90;;;;;;5036438;28;20045;-69
2021/04/21 07:18:21;;;;;;;27.40;20.85;;;12.50;99.90;;;;;;5049367;28;20080;-70
2021/04/21 07:20:50;;;;;;;29.42;21.83;;;12.70;99.90;;;;;;5049572;28;20793;-68
2021/04/21 07:23:20;;;;;;;33.70;23.25;;;12.90;99.90;;;;;;5050948;28;20211;-70
2021/04/21 07:25:49;;;;;;;38.97;26.65;;;13.00;99.90;;;;;;5039950;28;20143;-69
2021/04/21 07:28:18;;;;;;;32.13;23.77;;;12.80;99.90;;;;;;5047430;28;20037;-68
2021/04/21 07:30:45;;;;;;;32.92;25.98;;;12.70;99.90;;;;;;5042131;28;20045;-69
2021/04/21 07:33:12;;;;;;;43.58;27.08;;;12.70;99.90;;;;;;5037173;28;20057;-69
2021/04/21 07:35:39;;;;;;;30.02;23.65;;;12.70;99.90;;;;;;5038964;28;20602;-69
2021/04/21 07:38:17;;;;;;;32.15;25.58;;;12.80;99.90;;;;;;5048115;28;20152;-70
2021/04/21 07:40:50;;;;;;;31.42;22.55;;;12.90;99.90;;;;;;5034499;28;20049;-70
2021/04/21 07:43:19;;;;;;;34.50;25.90;;;12.90;99.90;;;;;;5044453;28;20103;-69
2021/04/21 07:45:48;;;;;;;34.28;26.20;;;12.80;99.90;;;;;;5055832;28;20076;-69
2021/04/21 07:48:36;;;;;;;38.83;26.85;;;12.90;99.90;;;;;;5048077;28;20206;-69
2021/04/21 07:51:15;;;;;;;34.95;26.48;;;12.90;99.90;;;;;;5041124;28;20049;-70
2021/04/21 07:54:04;;;;;;;33.75;26.20;;;12.90;99.90;;;;;;5048703;28;20045;-69
2021/04/21 07:56:35;;;;;;;36.22;26.95;;;12.80;99.90;;;;;;5049296;28;20060;-69
2021/04/21 07:59:22;;;;;;;32.15;25.13;;;12.80;99.90;;;;;;5046971;28;20060;-68
2021/04/21 08:01:50;;;;;;;36.28;25.48;;;12.80;99.90;;;;;;5047115;28;20105;-69
2021/04/21 08:04:23;;;;;;;33.78;24.05;;;12.90;99.90;;;;;;5044261;28;20049;-69
2021/04/21 08:06:53;;;;;;;34.53;25.38;;;13.00;99.90;;;;;;5049527;28;20053;-69
2021/04/21 08:09:23;;;;;;;;;;;13.00;99.90;;;;;;5051146;28;20052;-70
2021/04/21 08:12:13;;;;;;;33.45;26.15;;;13.00;99.90;;;;;;5050253;28;19966;-70
2021/04/21 08:15:03;;;;;;;33.92;23.98;;;13.10;99.90;;;;;;5051851;28;20049;-69
2021/04/21 08:17:53;;;;;;;33.03;25.48;;;13.20;99.90;;;;;;5053964;28;20068;-69
2021/04/21 08:20:35;;;;;;;37.55;25.90;;;13.20;99.90;;;;;;5043663;28;20083;-68
2021/04/21 08:23:22;;;;;;;32.33;25.55;;;13.30;99.90;;;;;;5050578;28;20633;-69
2021/04/21 08:25:51;;;;;;;34.13;24.65;;;13.40;99.90;;;;;;5045715;28;20541;-70
2021/04/21 08:28:20;;;;;;;30.00;24.33;;;13.50;99.90;;;;;;5051837;28;20418;-68
2021/04/21 08:31:01;;;;;;;30.85;24.83;;;13.50;99.90;;;;;;5053413;28;20049;-68
2021/04/21 08:33:30;;;;;;;29.88;22.58;;;13.70;99.90;;;;;;5047560;28;20049;-69
2021/04/21 08:35:57;;;;;;;27.38;22.98;;;13.90;99.90;;;;;;5041297;28;20073;-70
2021/04/21 08:38:24;;;;;;;28.40;21.98;;;14.00;99.90;;;;;;5045299;28;20054;-69
2021/04/21 08:40:50;;;;;;;23.98;21.00;;;14.00;99.90;;;;;;5048476;28;20052;-70
2021/04/21 08:43:20;;;;;;;33.97;23.40;;;14.10;99.90;;;;;;5047705;28;20099;-69
2021/04/21 08:45:47;;;;;;;26.27;21.17;;;14.10;99.90;;;;;;5055048;28;20476;-69
2021/04/21 08:48:15;;;;;;;28.15;21.42;;;14.00;99.90;;;;;;5048260;28;20415;-69
2021/04/21 08:50:43;;;;;;;30.15;21.23;;;14.00;99.90;;;;;;5044060;28;20049;-69
2021/04/21 08:53:11;;;;;;;28.48;20.35;;;14.10;99.90;;;;;;5048879;28;20488;-70
2021/04/21 08:55:39;;;;;;;26.63;20.48;;;14.20;99.90;;;;;;5045625;28;20045;-69
2021/04/21 08:58:09;;;;;;;28.80;20.50;;;14.20;99.90;;;;;;5047327;28;20571;-69
2021/04/21 09:00:36;;;;;;;27.63;19.02;;;14.40;99.90;;;;;;5050635;28;20053;-69
2021/04/21 09:03:03;;;;;;;26.27;20.67;;;14.60;99.90;;;;;;5051947;28;20131;-69
2021/04/21 09:05:30;;;;;;;27.77;19.88;;;14.80;99.90;;;;;;5046602;28;20463;-70
2021/04/21 09:07:57;;;;;;;26.38;20.13;;;14.80;99.90;;;;;;5049559;28;20045;-70
2021/04/21 09:10:23;;;;;;;23.17;17.92;;;15.00;99.90;;;;;;5053624;28;20599;-69
2021/04/21 09:12:51;;;;;;;20.75;16.90;;;15.20;99.90;;;;;;5044596;28;20378;-69
2021/04/21 09:15:18;;;;;;;19.02;16.45;;;15.20;99.90;;;;;;5053117;28;20073;-71
2021/04/21 09:17:50;;;;;;;18.27;16.10;;;15.40;99.90;;;;;;5049033;28;20080;-69
2021/04/21 09:20:20;;;;;;;19.73;15.80;;;15.40;99.90;;;;;;5050166;28;20396;-69
2021/04/21 09:23:18;;;;;;;24.60;16.70;;;15.60;99.90;;;;;;5049082;28;20098;-69
2021/04/21 09:25:54;;;;;;;18.42;16.17;;;15.70;99.90;;;;;;5043542;28;20060;-69
2021/04/21 09:28:23;;;;;;;21.77;16.80;;;15.70;99.90;;;;;;5044950;28;20041;-69
2021/04/21 09:30:51;;;;;;;21.85;15.45;;;15.80;99.90;;;;;;5052868;28;20053;-70
2021/04/21 09:33:19;;;;;;;20.15;15.50;;;16.10;99.90;;;;;;5052694;28;20056;-69
2021/04/21 09:35:47;;;;;;;16.17;14.43;;;16.20;99.90;;;;;;5033369;28;20042;-69
2021/04/21 09:38:16;;;;;;;24.40;16.35;;;16.40;99.90;;;;;;5033252;28;20073;-69
2021/04/21 09:40:55;;;;;;;17.85;15.95;;;16.50;99.90;;;;;;5036095;28;20499;-69
2021/04/21 09:43:27;;;;;;;22.23;17.42;;;16.50;99.90;;;;;;5033862;28;20112;-71
2021/04/21 09:46:05;;;;;;;19.25;16.13;;;16.60;99.90;;;;;;5049666;28;20415;-70
2021/04/21 09:48:34;;;;;;;19.23;17.05;;;16.50;99.90;;;;;;5032679;28;20042;-70
2021/04/21 09:51:06;;;;;;;20.05;17.25;;;16.60;99.90;;;;;;5037490;28;20037;-70
2021/04/21 09:53:38;;;;;;;;;;;16.90;99.90;;;;;;5033838;28;20092;-69
2021/04/21 09:56:09;;;;;;;24.75;18.42;;;16.90;99.90;;;;;;5038820;28;19925;-70
2021/04/21 09:59:01;;;;;;;22.33;17.98;;;16.80;99.90;;;;;;5038040;28;20049;-70
2021/04/21 10:01:37;;;;;;;21.23;16.23;;;16.70;99.90;;;;;;5043668;28;20049;-70
2021/04/21 10:04:14;;;;;;;22.85;17.30;;;16.70;99.90;;;;;;5050027;28;20057;-70
2021/04/21 10:06:51;;;;;;;22.42;16.13;;;16.90;99.90;;;;;;5048851;28;20208;-69
2021/04/21 10:09:36;;;;;;;22.40;17.33;;;16.90;99.90;;;;;;5051221;28;20094;-70
2021/04/21 10:12:21;;;;;;;16.88;15.10;;;17.10;99.90;;;;;;5052371;28;20069;-68
2021/04/21 10:15:00;;;;;;;18.23;15.95;;;17.40;99.90;;;;;;5051950;28;20041;-69
2021/04/21 10:17:29;;;;;;;19.55;15.82;;;17.80;99.90;;;;;;5049866;28;20053;-69
2021/04/21 10:19:58;;;;;;;20.17;16.20;;;18.00;99.90;;;;;;5053391;28;20044;-69
2021/04/21 10:22:25;;;;;;;17.70;15.13;;;18.20;99.90;;;;;;5050196;28;20049;-69
2021/04/21 10:24:53;;;;;;;17.60;15.38;;;18.30;99.90;;;;;;5053544;28;20045;-68
2021/04/21 10:27:21;;;;;;;17.80;15.68;;;18.30;99.90;;;;;;5045415;28;20053;-69
2021/04/21 10:29:48;;;;;;;22.92;16.02;;;18.50;99.90;;;;;;5052273;28;20064;-69
2021/04/21 10:32:15;;;;;;;19.30;17.00;;;18.60;99.90;;;;;;5052307;28;20045;-70
2021/04/21 10:34:47;;;;;;;18.88;16.75;;;18.90;99.90;;;;;;5042740;28;20431;-70
2021/04/21 10:37:15;;;;;;;18.80;16.00;;;19.20;99.90;;;;;;5037753;28;20045;-69
2021/04/21 10:39:46;;;;;;;22.23;17.10;;;19.30;99.90;;;;;;5046658;28;20292;-70
2021/04/21 10:42:17;;;;;;;23.80;17.25;;;19.40;99.90;;;;;;5039454;28;20547;-70
2021/04/21 10:44:47;;;;;;;19.35;17.33;;;19.10;99.90;;;;;;5052891;28;20040;-69
2021/04/21 10:47:16;;;;;;;18.98;17.05;;;18.60;99.90;;;;;;5032226;28;20092;-69
2021/04/21 10:50:00;;;;;;;19.63;16.63;;;18.20;99.90;;;;;;5037426;28;20049;-69
2021/04/21 10:52:28;;;;;;;18.65;16.73;;;18.60;99.90;;;;;;5031649;28;20049;-68
2021/04/21 10:55:32;;;;;;;20.45;17.13;;;18.90;99.90;;;;;;5038205;28;20116;-70
2021/04/21 10:58:03;;;;;;;18.20;16.23;;;19.10;99.90;;;;;;5036551;28;20049;-69
2021/04/21 11:00:40;;;;;;;20.02;16.77;;;19.40;99.90;;;;;;5036301;28;20044;-69
2021/04/21 11:03:09;;;;;;;23.38;17.30;;;19.60;99.90;;;;;;5035422;28;20084;-70
2021/04/21 11:05:36;;;;;;;19.45;16.25;;;20.00;99.90;;;;;;5045087;28;20049;-69
2021/04/21 11:08:15;;;;;;;19.83;15.90;;;20.80;99.90;;;;;;5050140;28;20056;-68
2021/04/21 11:10:45;;;;;;;21.55;16.70;;;21.60;98.60;;;;;;5049599;28;20106;-69
2021/04/21 11:13:36;;;;;;;19.60;17.60;;;22.00;96.40;;;;;;5046977;28;20057;-70
2021/04/21 11:16:10;;;;;;;19.00;17.10;;;21.70;96.30;;;;;;5045292;28;20041;-71
2021/04/21 11:18:39;;;;;;;18.85;16.15;;;21.00;95.50;;;;;;5047927;28;20127;-69
2021/04/21 11:21:08;;;;;;;16.85;15.25;;;20.50;94.70;;;;;;5045991;28;20055;-72
2021/04/21 11:23:56;;;;;;;15.52;14.02;;;20.00;94.90;;;;;;5047349;28;20128;-70
2021/04/21 11:26:26;;;;;;;18.10;16.20;;;19.80;94.60;;;;;;5045652;28;20056;-71
2021/04/21 11:29:10;;;;;;;15.15;13.75;;;19.80;94.10;;;;;;5049053;28;20045;-70
2021/04/21 11:31:40;;;;;;;16.98;15.18;;;20.10;94.40;;;;;;5046684;28;20080;-69
2021/04/21 11:34:16;;;;;;;15.65;14.05;;;20.00;93.80;;;;;;5037505;28;20089;-69
2021/04/21 11:37:07;;;;;;;16.25;14.55;;;19.60;93.00;;;;;;5037068;28;20057;-69
2021/04/21 11:39:46;;;;;;;15.93;14.43;;;19.20;93.70;;;;;;5037007;28;20124;-69
2021/04/21 11:42:44;;;;;;;15.98;14.35;;;19.40;94.30;;;;;;5033030;28;20095;-69
2021/04/21 11:45:14;;;;;;;15.80;14.18;;;19.70;94.90;;;;;;5050118;28;20092;-71
2021/04/21 11:47:50;;;;;;;12.25;11.15;;;20.00;93.50;;;;;;5030518;28;20459;-70
2021/04/21 11:50:17;;;;;;;10.93;9.88;;;19.50;92.60;;;;;;5039870;28;20099;-69
2021/04/21 11:52:45;;;;;;;12.95;10.65;;;19.30;92.40;;;;;;5045294;28;20041;-70
2021/04/21 11:55:23;;;;;;;11.85;10.40;;;19.20;92.40;;;;;;5041752;28;20057;-70
2021/04/21 11:57:56;;;;;;;15.70;10.50;;;19.00;92.40;;;;;;5043992;28;20056;-69
2021/04/21 12:00:29;;;;;;;12.32;11.02;;;18.70;93.60;;;;;;5043713;28;20057;-70
2021/04/21 12:02:57;;;;;;;12.13;11.02;;;18.70;94.30;;;;;;5049740;28;20044;-69
2021/04/21 12:05:36;;;;;;;12.88;11.57;;;18.50;94.70;;;;;;5048509;28;20052;-68
2021/04/21 12:08:05;;;;;;;13.07;11.77;;;18.20;97.20;;;;;;5047505;28;20388;-71
2021/04/21 12:10:42;;;;;;;13.43;12.13;;;17.90;99.30;;;;;;5046978;28;20459;-69
2021/04/21 12:13:21;;;;;;;14.20;12.53;;;17.50;99.90;;;;;;5049456;28;20067;-70
2021/04/21 12:15:50;;;;;;;14.00;12.60;;;17.20;99.90;;;;;;5051705;28;20049;-69
2021/04/21 12:18:34;;;;;;;12.95;11.65;;;17.00;99.90;;;;;;5049381;28;20422;-69
2021/04/21 12:21:23;;;;;;;12.32;11.05;;;16.50;99.90;;;;;;5050889;28;20459;-69
2021/04/21 12:24:05;;;;;;;14.57;12.48;;;16.30;99.90;;;;;;5045818;28;20053;-69
2021/04/21 12:26:32;;;;;;;14.10;12.80;;;16.00;99.90;;;;;;5052167;28;20131;-69
2021/04/21 12:29:10;;;;;;;14.45;13.00;;;15.70;99.90;;;;;;5042251;28;20080;-69
2021/04/21 12:31:37;;;;;;;15.70;13.75;;;15.60;99.90;;;;;;5047289;28;20500;-69
2021/04/21 12:34:11;;;;;;;13.98;12.68;;;15.60;99.90;;;;;;5047344;28;20049;-70
2021/04/21 12:36:39;;;;;;;14.98;13.38;;;15.40;99.90;;;;;;5032445;28;20107;-68
2021/04/21 12:39:09;;;;;;;13.05;11.75;;;15.20;99.90;;;;;;5032822;28;20053;-72
2021/04/21 12:41:37;;;;;;;13.05;11.80;;;15.20;99.90;;;;;;5033473;28;20057;-70
2021/04/21 12:44:23;;;;;;;12.68;11.27;;;15.30;99.90;;;;;;5041221;28;20463;-69
2021/04/21 12:46:53;;;;;;;12.52;11.23;;;15.40;99.90;;;;;;5060637;28;20075;-68
2021/04/21 12:49:50;;;;;;;11.90;10.90;;;15.50;99.90;;;;;;5037755;28;20049;-69
2021/04/21 12:52:30;;;;;;;13.23;11.00;;;15.80;99.90;;;;;;5050106;28;20045;-68
2021/04/21 12:54:57;;;;;;;12.45;11.30;;;16.20;99.90;;;;;;5050194;28;20049;-69
2021/04/21 12:57:25;;;;;;;13.02;11.35;;;16.70;99.90;;;;;;5044134;28;20424;-68
2021/04/21 12:59:58;;;;;;;11.38;10.25;;;17.30;99.90;;;;;;5050950;28;20071;-69
2021/04/21 13:02:43;;;;;;;11.68;10.57;;;18.20;99.90;;;;;;5045744;28;20063;-68
2021/04/21 13:05:47;;;;;;;12.90;11.60;;;19.10;99.90;;;;;;5048481;28;20059;-69
2021/04/21 13:08:28;;;;;;;11.48;10.32;;;19.30;98.00;;;;;;5039770;28;20857;-68
2021/04/21 13:10:58;;;;;;;11.65;10.25;;;19.40;97.50;;;;;;5053112;28;20049;-68
2021/04/21 13:13:30;;;;;;;12.55;10.18;;;19.50;97.00;;;;;;5051790;28;20055;-69
2021/04/21 13:15:59;;;;;;;12.57;11.30;;;19.60;95.10;;;;;;5053086;28;20053;-70